Time;durP1;ratioP1;P1;durP2;ratioP2;P2;SDS_P1;SDS_P2;PMS_P1;PMS_P2;Temp;Humidity;BMP_temperature;BMP_pressure;BME280_temperature;BME280_humidity;BME280_pressure;Samples;Min_cycle;Max_cycle;Signal;HPM_P1;HPM_P2
2021/12/19 00:00:06;;;;;;;0.13;0.13;;;;;;;;;;4936615;29;20101;-89
2021/12/19 00:03:00;;;;;;;0.10;0.10;;;;;;;;;;4921523;29;20368;-89
2021/12/19 00:10:55;;;;;;;0.10;0.10;;;;;;;;;;4952446;29;20047;-89
2021/12/19 00:13:24;;;;;;;0.10;0.10;;;;;;;;;;4938497;29;20130;-89
2021/12/19 00:15:50;;;;;;;0.10;0.10;;;;;;;;;;4924803;29;20043;-89
2021/12/19 00:18:16;;;;;;;0.10;0.10;;;;;;;;;;4940039;29;20050;-89
2021/12/19 00:20:42;;;;;;;0.10;0.10;;;;;;;;;;4940008;29;20039;-89
2021/12/19 00:23:08;;;;;;;0.10;0.10;;;;;;;;;;4939757;29;20101;-89
2021/12/19 00:25:34;;;;;;;0.10;0.10;;;;;;;;;;4924013;29;20035;-89
2021/12/19 00:28:00;;;;;;;0.10;0.10;;;;;;;;;;4939686;29;20347;-89
2021/12/19 00:30:26;;;;;;;0.10;0.10;;;;;;;;;;4955721;29;20069;-88
2021/12/19 00:32:52;;;;;;;0.65;0.40;;;;;;;;;;4939706;29;20218;-88
2021/12/19 00:35:19;;;;;;;0.10;0.10;;;;;;;;;;4923834;29;20050;-88
2021/12/19 00:37:45;;;;;;;0.10;0.10;;;;;;;;;;4939506;29;20502;-89
2021/12/19 00:40:11;;;;;;;0.10;0.10;;;;;;;;;;4939612;29;20427;-88
2021/12/19 00:42:37;;;;;;;0.10;0.10;;;;;;;;;;4939376;29;20475;-88
2021/12/19 00:45:12;;;;;;;0.10;0.10;;;;;;;;;;4939799;29;20453;-89
2021/12/19 00:47:38;;;;;;;0.52;0.20;;;;;;;;;;4940947;29;20442;-89
2021/12/19 00:50:04;;;;;;;0.10;0.10;;;;;;;;;;4923769;29;20054;-89
2021/12/19 00:52:30;;;;;;;0.10;0.10;;;;;;;;;;4923567;29;20570;-89
2021/12/19 00:54:56;;;;;;;0.20;0.20;;;;;;;;;;4923965;29;20138;-89
2021/12/19 00:57:22;;;;;;;1.10;0.30;;;;;;;;;;4939256;29;20348;-89
2021/12/19 00:59:48;;;;;;;0.10;0.10;;;;;;;;;;4955107;29;20043;-89
2021/12/19 01:02:14;;;;;;;0.73;0.35;;;;;;;;;;4954993;28;20168;-89
2021/12/19 01:04:40;;;;;;;0.15;0.15;;;;;;;;;;4923275;29;20047;-89
2021/12/19 01:07:06;;;;;;;0.10;0.10;;;;;;;;;;4939073;29;20043;-88
2021/12/19 01:09:32;;;;;;;0.10;0.10;;;;;;;;;;4938912;29;20093;-88
2021/12/19 01:11:58;;;;;;;0.30;0.30;;;;;;;;;;4938929;29;20050;-89
2021/12/19 01:14:24;;;;;;;0.10;0.10;;;;;;;;;;4939208;29;20043;-88
2021/12/19 01:16:50;;;;;;;0.10;0.10;;;;;;;;;;4938874;29;20039;-89
2021/12/19 01:19:16;;;;;;;0.10;0.10;;;;;;;;;;4938883;29;20130;-89
2021/12/19 01:21:42;;;;;;;0.10;0.10;;;;;;;;;;4923166;28;20130;-88
2021/12/19 01:24:08;;;;;;;0.10;0.10;;;;;;;;;;4938089;29;20039;-88
2021/12/19 01:26:34;;;;;;;0.10;0.10;;;;;;;;;;4954542;29;20508;-88
2021/12/19 01:29:00;;;;;;;1.75;0.30;;;;;;;;;;4939023;29;20141;-89
2021/12/19 01:31:26;;;;;;;0.10;0.10;;;;;;;;;;4938523;28;20035;-89
2021/12/19 01:33:52;;;;;;;0.10;0.10;;;;;;;;;;4938508;29;20090;-88
2021/12/19 01:36:18;;;;;;;0.10;0.10;;;;;;;;;;4938209;29;20591;-88
2021/12/19 01:38:44;;;;;;;0.10;0.10;;;;;;;;;;4954316;29;20051;-88
2021/12/19 01:41:10;;;;;;;0.10;0.10;;;;;;;;;;4938311;29;20406;-87
2021/12/19 01:43:36;;;;;;;0.10;0.10;;;;;;;;;;4938279;29;20122;-87
2021/12/19 01:46:02;;;;;;;0.30;0.30;;;;;;;;;;4938505;29;20046;-87
2021/12/19 01:48:28;;;;;;;0.10;0.10;;;;;;;;;;4938220;29;20047;-87
2021/12/19 01:50:54;;;;;;;0.10;0.10;;;;;;;;;;4922444;29;20400;-87
2021/12/19 01:53:20;;;;;;;0.10;0.10;;;;;;;;;;4938165;29;20376;-87
2021/12/19 01:55:47;;;;;;;0.10;0.10;;;;;;;;;;4938072;29;20047;-88
2021/12/19 01:58:13;;;;;;;0.10;0.10;;;;;;;;;;4922187;29;20043;-88
2021/12/19 02:00:40;;;;;;;0.10;0.10;;;;;;;;;;4922133;29;20534;-88
2021/12/19 02:03:07;;;;;;;0.10;0.10;;;;;;;;;;4937901;29;20043;-88
2021/12/19 02:05:33;;;;;;;0.30;0.30;;;;;;;;;;4937697;29;20106;-88
2021/12/19 02:07:59;;;;;;;0.30;0.30;;;;;;;;;;4937775;29;20043;-88
2021/12/19 02:10:26;;;;;;;0.10;0.10;;;;;;;;;;4921992;29;20039;-88
2021/12/19 02:12:52;;;;;;;0.10;0.10;;;;;;;;;;4937704;29;20487;-88
2021/12/19 02:15:20;;;;;;;0.10;0.10;;;;;;;;;;4921889;29;20051;-88
2021/12/19 02:17:47;;;;;;;0.10;0.10;;;;;;;;;;4938001;29;20126;-88
2021/12/19 02:20:13;;;;;;;0.03;0.03;;;;;;;;;;4937684;29;20090;-87
2021/12/19 02:22:39;;;;;;;0.10;0.10;;;;;;;;;;4937462;29;20042;-88
2021/12/19 02:25:05;;;;;;;0.10;0.10;;;;;;;;;;4937674;29;20129;-88
2021/12/19 02:27:31;;;;;;;0.10;0.10;;;;;;;;;;4937959;29;20051;-89
2021/12/19 02:29:57;;;;;;;0.10;0.10;;;;;;;;;;4937388;29;20526;-88
2021/12/19 02:32:25;;;;;;;0.10;0.10;;;;;;;;;;4921527;29;20406;-88
2021/12/19 02:34:54;;;;;;;0.10;0.10;;;;;;;;;;4936893;29;20126;-89
2021/12/19 02:40:29;;;;;;;0.10;0.10;;;;;;;;;;4938046;29;20046;-89
2021/12/19 02:48:10;;;;;;;0.10;0.10;;;;;;;;;;4937326;29;20050;-88
2021/12/19 02:50:36;;;;;;;0.10;0.10;;;;;;;;;;4939671;29;20071;-88
2021/12/19 02:53:02;;;;;;;0.10;0.10;;;;;;;;;;4937160;29;20047;-88
2021/12/19 02:55:28;;;;;;;0.10;0.10;;;;;;;;;;4937097;29;20138;-87
2021/12/19 02:57:54;;;;;;;0.10;0.10;;;;;;;;;;4936833;29;20107;-88
2021/12/19 03:00:21;;;;;;;0.10;0.10;;;;;;;;;;4921455;29;20043;-88
2021/12/19 03:02:47;;;;;;;0.10;0.10;;;;;;;;;;4937040;29;20047;-88
2021/12/19 03:05:13;;;;;;;0.10;0.10;;;;;;;;;;4921191;29;20078;-88
2021/12/19 03:07:42;;;;;;;0.10;0.10;;;;;;;;;;4921131;29;20130;-88
2021/12/19 03:18:27;;;;;;;0.10;0.10;;;;;;;;;;4952582;29;20495;-88
2021/12/19 03:20:53;;;;;;;0.10;0.10;;;;;;;;;;4921108;29;20391;-88
2021/12/19 03:23:19;;;;;;;0.10;0.10;;;;;;;;;;4936710;29;20035;-88
2021/12/19 03:25:45;;;;;;;0.10;0.10;;;;;;;;;;4936784;29;20491;-88
2021/12/19 03:28:11;;;;;;;0.10;0.10;;;;;;;;;;4920911;29;20466;-88
2021/12/19 03:30:38;;;;;;;0.10;0.10;;;;;;;;;;4936810;29;20126;-88
2021/12/19 03:33:04;;;;;;;0.10;0.10;;;;;;;;;;4936796;29;20431;-89
2021/12/19 03:35:30;;;;;;;0.10;0.10;;;;;;;;;;4936335;29;20043;-88
2021/12/19 03:37:56;;;;;;;0.10;0.10;;;;;;;;;;4920404;29;20403;-88
2021/12/19 03:40:24;;;;;;;0.10;0.10;;;;;;;;;;4936711;29;20050;-88
2021/12/19 03:42:52;;;;;;;0.10;0.10;;;;;;;;;;4936810;29;20423;-88
2021/12/19 03:45:19;;;;;;;0.10;0.10;;;;;;;;;;4936742;29;20048;-88
2021/12/19 03:47:45;;;;;;;0.10;0.10;;;;;;;;;;4939587;29;20043;-88
2021/12/19 03:50:12;;;;;;;0.10;0.10;;;;;;;;;;4924567;29;20508;-88
2021/12/19 03:52:38;;;;;;;0.10;0.10;;;;;;;;;;4925135;29;20054;-89
2021/12/19 03:55:04;;;;;;;0.10;0.10;;;;;;;;;;4924872;29;20051;-88
2021/12/19 03:57:30;;;;;;;0.10;0.10;;;;;;;;;;4924574;29;20051;-88
2021/12/19 03:59:56;;;;;;;0.10;0.10;;;;;;;;;;4940258;29;20040;-88
2021/12/19 04:02:26;;;;;;;0.10;0.10;;;;;;;;;;4940131;29;20095;-88
2021/12/19 04:04:53;;;;;;;0.10;0.10;;;;;;;;;;4940799;29;20043;-88
2021/12/19 04:07:19;;;;;;;0.10;0.10;;;;;;;;;;4940263;29;20039;-88
2021/12/19 04:09:45;;;;;;;0.10;0.10;;;;;;;;;;4940031;29;20050;-88
2021/12/19 04:12:11;;;;;;;0.10;0.10;;;;;;;;;;4940135;29;20043;-88
2021/12/19 04:14:37;;;;;;;0.10;0.10;;;;;;;;;;4955842;29;20117;-87
2021/12/19 04:17:03;;;;;;;0.10;0.10;;;;;;;;;;4955617;29;20050;-88
2021/12/19 04:19:29;;;;;;;0.10;0.10;;;;;;;;;;4955712;29;20039;-88
2021/12/19 04:21:56;;;;;;;0.10;0.10;;;;;;;;;;4939859;29;20036;-88
2021/12/19 04:24:22;;;;;;;0.10;0.10;;;;;;;;;;4939797;29;20043;-88
2021/12/19 04:26:48;;;;;;;0.10;0.10;;;;;;;;;;4924101;29;20044;-87
2021/12/19 04:29:14;;;;;;;0.10;0.10;;;;;;;;;;4939992;29;20050;-88
2021/12/19 04:31:40;;;;;;;0.10;0.10;;;;;;;;;;4924012;28;20058;-89
2021/12/19 04:34:06;;;;;;;0.10;0.10;;;;;;;;;;4939663;29;20082;-88
2021/12/19 04:36:37;;;;;;;0.10;0.10;;;;;;;;;;4939703;29;20059;-88
2021/12/19 04:39:21;;;;;;;0.10;0.10;;;;;;;;;;4939318;29;20050;-88
2021/12/19 04:42:13;;;;;;;0.10;0.10;;;;;;;;;;4926127;29;20035;-88
2021/12/19 04:53:15;;;;;;;0.10;0.10;;;;;;;;;;4941548;29;20506;-90
2021/12/19 05:03:41;;;;;;;0.30;0.30;;;;;;;;;;4940094;29;20101;-88
2021/12/19 05:14:06;;;;;;;0.10;0.10;;;;;;;;;;4954930;28;20086;-88
2021/12/19 05:14:46;;;;;;;0.35;0.35;;;;;;;;;;4942060;29;20051;-88
2021/12/19 05:17:18;;;;;;;0.10;0.10;;;;;;;;;;4924284;29;20053;-88
2021/12/19 05:20:09;;;;;;;0.17;0.17;;;;;;;;;;4923888;29;20070;-87
2021/12/19 05:22:35;;;;;;;0.10;0.10;;;;;;;;;;4940579;29;20093;-88
2021/12/19 05:25:08;;;;;;;0.10;0.10;;;;;;;;;;4923726;29;20051;-88
2021/12/19 05:27:34;;;;;;;0.10;0.10;;;;;;;;;;4923721;29;20047;-88
2021/12/19 05:29:59;;;;;;;0.10;0.10;;;;;;;;;;4922943;29;20050;-88
2021/12/19 05:32:25;;;;;;;0.10;0.10;;;;;;;;;;4922986;29;20087;-88
2021/12/19 05:34:51;;;;;;;0.10;0.10;;;;;;;;;;4938605;29;20039;-88
2021/12/19 05:45:31;;;;;;;0.10;0.10;;;;;;;;;;4954338;29;20047;-87
2021/12/19 05:47:58;;;;;;;0.28;0.25;;;;;;;;;;4922743;29;20139;-88
2021/12/19 05:50:23;;;;;;;0.10;0.10;;;;;;;;;;4938398;29;20050;-89
2021/12/19 05:52:50;;;;;;;0.30;0.30;;;;;;;;;;4954512;28;20051;-89
2021/12/19 05:55:16;;;;;;;0.10;0.10;;;;;;;;;;4954277;29;20143;-87
2021/12/19 05:57:42;;;;;;;0.10;0.10;;;;;;;;;;4938219;29;20106;-88
2021/12/19 06:00:09;;;;;;;0.10;0.10;;;;;;;;;;4938216;29;20047;-88
2021/12/19 06:02:35;;;;;;;0.10;0.10;;;;;;;;;;4922243;29;20043;-88
2021/12/19 06:05:01;;;;;;;0.10;0.10;;;;;;;;;;4938022;29;20043;-88
2021/12/19 06:07:27;;;;;;;0.10;0.10;;;;;;;;;;4922482;29;20039;-88
2021/12/19 06:09:53;;;;;;;0.10;0.10;;;;;;;;;;4936828;29;20119;-88
2021/12/19 06:12:19;;;;;;;0.10;0.10;;;;;;;;;;4938052;29;20051;-88
2021/12/19 06:14:45;;;;;;;0.10;0.10;;;;;;;;;;4922571;29;20043;-89
2021/12/19 06:17:11;;;;;;;0.10;0.10;;;;;;;;;;4938003;29;20045;-88
2021/12/19 06:19:39;;;;;;;2.08;0.35;;;;;;;;;;4937976;29;20039;-88
2021/12/19 06:22:05;;;;;;;0.10;0.10;;;;;;;;;;4922097;29;20041;-88
2021/12/19 06:24:32;;;;;;;0.10;0.10;;;;;;;;;;4921794;29;20070;-88
2021/12/19 06:26:58;;;;;;;0.10;0.10;;;;;;;;;;4937678;29;20545;-88
2021/12/19 06:29:24;;;;;;;0.10;0.10;;;;;;;;;;4937672;29;20128;-87
2021/12/19 06:31:50;;;;;;;0.10;0.10;;;;;;;;;;4922125;29;20121;-87
2021/12/19 06:34:16;;;;;;;0.10;0.10;;;;;;;;;;4937610;29;20062;-87
2021/12/19 06:36:43;;;;;;;0.20;0.20;;;;;;;;;;4937304;29;20082;-87
2021/12/19 06:39:08;;;;;;;0.10;0.10;;;;;;;;;;4937403;29;20055;-88
2021/12/19 06:41:36;;;;;;;0.40;0.40;;;;;;;;;;4937017;28;20403;-87
2021/12/19 06:44:02;;;;;;;0.10;0.10;;;;;;;;;;4937523;29;20379;-88
2021/12/19 06:46:28;;;;;;;0.10;0.10;;;;;;;;;;4953066;29;20406;-88
2021/12/19 06:48:54;;;;;;;0.10;0.10;;;;;;;;;;4921893;29;20047;-88
2021/12/19 06:51:21;;;;;;;0.35;0.20;;;;;;;;;;4953053;28;20565;-88
2021/12/19 06:53:47;;;;;;;1.65;0.30;;;;;;;;;;4921613;29;20102;-88
2021/12/19 06:56:13;;;;;;;0.10;0.10;;;;;;;;;;4921445;29;20118;-88
2021/12/19 06:58:39;;;;;;;0.10;0.10;;;;;;;;;;4937056;29;20067;-88
2021/12/19 07:01:05;;;;;;;0.30;0.30;;;;;;;;;;4937212;29;20091;-88
2021/12/19 07:03:31;;;;;;;0.10;0.10;;;;;;;;;;4936876;29;20035;-88
2021/12/19 07:05:57;;;;;;;0.20;0.20;;;;;;;;;;4936889;29;20518;-88
2021/12/19 07:08:23;;;;;;;0.10;0.10;;;;;;;;;;4937066;29;20039;-87
2021/12/19 07:10:49;;;;;;;0.32;0.32;;;;;;;;;;4937074;29;20043;-87
2021/12/19 07:13:20;;;;;;;0.10;0.10;;;;;;;;;;4936947;29;20047;-88
2021/12/19 07:15:46;;;;;;;0.10;0.10;;;;;;;;;;4937581;29;20046;-88
2021/12/19 07:18:12;;;;;;;0.10;0.10;;;;;;;;;;4936822;29;20039;-88
2021/12/19 07:20:42;;;;;;;0.10;0.10;;;;;;;;;;4952553;28;20439;-88
2021/12/19 07:23:09;;;;;;;0.10;0.10;;;;;;;;;;4936563;29;20122;-87
2021/12/19 07:25:35;;;;;;;0.13;0.13;;;;;;;;;;4936848;29;20039;-87
2021/12/19 07:28:01;;;;;;;0.40;0.20;;;;;;;;;;4937048;29;20049;-87
2021/12/19 07:30:27;;;;;;;0.10;0.10;;;;;;;;;;4920877;29;20102;-88
2021/12/19 07:32:54;;;;;;;0.15;0.15;;;;;;;;;;4936745;29;20050;-88
2021/12/19 07:35:21;;;;;;;0.10;0.10;;;;;;;;;;4937059;29;20055;-88
2021/12/19 07:37:49;;;;;;;0.10;0.10;;;;;;;;;;4936526;29;20109;-88
2021/12/19 07:40:19;;;;;;;0.20;0.20;;;;;;;;;;4936822;29;20050;-88
2021/12/19 07:42:45;;;;;;;0.10;0.10;;;;;;;;;;4921086;29;20075;-88
2021/12/19 07:45:11;;;;;;;0.10;0.10;;;;;;;;;;4920881;29;20043;-88
2021/12/19 07:47:38;;;;;;;0.10;0.10;;;;;;;;;;4936472;29;20102;-88
2021/12/19 07:50:05;;;;;;;0.10;0.10;;;;;;;;;;4936863;29;20558;-87
2021/12/19 07:52:31;;;;;;;0.10;0.10;;;;;;;;;;4936279;29;20082;-89
2021/12/19 07:54:56;;;;;;;0.10;0.10;;;;;;;;;;4952596;29;20094;-88
2021/12/19 07:57:23;;;;;;;0.93;0.30;;;;;;;;;;4920771;29;20503;-88
2021/12/19 07:59:49;;;;;;;0.10;0.10;;;;;;;;;;4936327;29;20546;-88
2021/12/19 08:02:15;;;;;;;0.10;0.10;;;;;;;;;;4936193;29;20483;-87
2021/12/19 08:04:41;;;;;;;0.20;0.20;;;;;;;;;;4952549;29;20042;-88
2021/12/19 08:07:11;;;;;;;0.10;0.10;;;;;;;;;;4936795;29;20050;-87
2021/12/19 08:09:40;;;;;;;0.10;0.10;;;;;;;;;;4936556;29;20125;-85
2021/12/19 08:12:07;;;;;;;0.10;0.10;;;;;;;;;;4921119;29;20130;-88
2021/12/19 08:14:33;;;;;;;0.10;0.10;;;;;;;;;;4936644;29;20075;-87
2021/12/19 08:16:59;;;;;;;0.10;0.10;;;;;;;;;;4936696;29;20399;-87
2021/12/19 08:19:25;;;;;;;0.10;0.10;;;;;;;;;;4936505;29;20055;-88
2021/12/19 08:21:52;;;;;;;0.10;0.10;;;;;;;;;;4936280;29;20372;-88
2021/12/19 08:24:18;;;;;;;0.10;0.10;;;;;;;;;;4936921;29;20379;-87
2021/12/19 08:26:46;;;;;;;0.10;0.10;;;;;;;;;;4936717;29;20046;-87
2021/12/19 08:29:12;;;;;;;0.10;0.10;;;;;;;;;;4936438;29;20039;-87
2021/12/19 08:31:37;;;;;;;0.10;0.10;;;;;;;;;;4936397;28;20368;-87
2021/12/19 08:34:03;;;;;;;0.10;0.10;;;;;;;;;;4938026;29;20041;-87
2021/12/19 08:36:29;;;;;;;0.10;0.10;;;;;;;;;;4939800;29;20471;-88
2021/12/19 08:38:55;;;;;;;0.10;0.10;;;;;;;;;;4941316;29;20138;-86
2021/12/19 08:41:21;;;;;;;0.10;0.10;;;;;;;;;;4942062;28;20047;-87
2021/12/19 08:43:47;;;;;;;0.10;0.10;;;;;;;;;;4939984;29;20117;-86
2021/12/19 08:46:13;;;;;;;0.10;0.10;;;;;;;;;;4955905;29;20122;-87
2021/12/19 08:48:39;;;;;;;0.10;0.10;;;;;;;;;;4940524;29;20047;-86
2021/12/19 08:51:05;;;;;;;0.10;0.10;;;;;;;;;;4956051;29;20071;-87
2021/12/19 08:53:31;;;;;;;0.10;0.10;;;;;;;;;;4977653;28;20058;-87
2021/12/19 08:55:57;;;;;;;0.10;0.10;;;;;;;;;;4923566;29;20082;-87
2021/12/19 08:58:23;;;;;;;0.10;0.10;;;;;;;;;;4939298;29;20039;-86
2021/12/19 09:00:49;;;;;;;0.10;0.10;;;;;;;;;;4939294;29;20394;-87
2021/12/19 09:03:17;;;;;;;0.20;0.20;;;;;;;;;;4923492;29;20049;-87
2021/12/19 09:05:43;;;;;;;0.17;0.17;;;;;;;;;;4924680;29;20122;-87
2021/12/19 09:08:09;;;;;;;0.20;0.20;;;;;;;;;;4926187;29;20550;-87
2021/12/19 09:10:35;;;;;;;0.10;0.10;;;;;;;;;;4958009;29;20073;-87
2021/12/19 09:13:01;;;;;;;0.10;0.10;;;;;;;;;;4941245;29;20479;-85
2021/12/19 09:15:27;;;;;;;0.10;0.10;;;;;;;;;;4957770;29;20119;-86
2021/12/19 09:17:53;;;;;;;0.10;0.10;;;;;;;;;;4941293;29;20134;-86
2021/12/19 09:20:19;;;;;;;0.10;0.10;;;;;;;;;;4956996;29;20043;-87
2021/12/19 09:22:45;;;;;;;0.10;0.10;;;;;;;;;;4957653;28;20039;-86
2021/12/19 09:25:11;;;;;;;0.10;0.10;;;;;;;;;;4941699;29;20471;-86
2021/12/19 09:27:37;;;;;;;0.10;0.10;;;;;;;;;;4957273;29;20054;-86
2021/12/19 09:30:04;;;;;;;0.10;0.10;;;;;;;;;;4925300;29;20047;-86
2021/12/19 09:32:29;;;;;;;0.10;0.10;;;;;;;;;;4939922;29;20092;-87
2021/12/19 09:34:55;;;;;;;0.10;0.10;;;;;;;;;;4957822;29;20491;-87
2021/12/19 09:37:21;;;;;;;0.10;0.10;;;;;;;;;;4941153;29;20459;-87
2021/12/19 09:39:50;;;;;;;0.20;0.20;;;;;;;;;;4941555;29;20040;-87
2021/12/19 09:42:19;;;;;;;0.20;0.20;;;;;;;;;;4925280;29;20487;-87
2021/12/19 09:44:45;;;;;;;0.10;0.10;;;;;;;;;;4940907;29;20079;-88
2021/12/19 09:47:11;;;;;;;0.10;0.10;;;;;;;;;;4925612;29;20043;-86
2021/12/19 09:49:37;;;;;;;0.10;0.10;;;;;;;;;;4940980;29;20050;-87
2021/12/19 09:52:08;;;;;;;0.10;0.10;;;;;;;;;;4940964;29;20043;-86
2021/12/19 09:54:36;;;;;;;0.10;0.10;;;;;;;;;;4956695;29;20527;-86
2021/12/19 09:57:02;;;;;;;0.10;0.10;;;;;;;;;;4925047;29;20134;-90
2021/12/19 09:59:28;;;;;;;0.10;0.10;;;;;;;;;;4940357;29;20043;-88
2021/12/19 10:01:54;;;;;;;0.10;0.10;;;;;;;;;;4924626;29;20039;-86
2021/12/19 10:04:30;;;;;;;0.10;0.10;;;;;;;;;;4940919;29;20086;-87
2021/12/19 10:07:23;;;;;;;0.10;0.10;;;;;;;;;;4956508;29;20039;-86
2021/12/19 10:10:04;;;;;;;0.20;0.20;;;;;;;;;;4954001;29;20062;-87
2021/12/19 10:15:34;;;;;;;0.10;0.10;;;;;;;;;;4940421;29;20094;-86
2021/12/19 10:18:04;;;;;;;0.10;0.10;;;;;;;;;;4915280;29;20055;-87
2021/12/19 10:20:40;;;;;;;0.13;0.13;;;;;;;;;;4956559;29;20524;-87
2021/12/19 10:23:09;;;;;;;0.10;0.10;;;;;;;;;;4939238;29;20479;-87
2021/12/19 10:25:35;;;;;;;0.10;0.10;;;;;;;;;;4937695;29;20486;-87
2021/12/19 10:28:02;;;;;;;0.10;0.10;;;;;;;;;;4937971;29;20035;-87
2021/12/19 10:30:35;;;;;;;0.10;0.10;;;;;;;;;;4937378;29;20043;-86
2021/12/19 10:33:02;;;;;;;0.10;0.10;;;;;;;;;;4937596;29;20081;-86
2021/12/19 10:35:29;;;;;;;0.10;0.10;;;;;;;;;;4953409;29;20047;-87
2021/12/19 10:37:55;;;;;;;0.10;0.10;;;;;;;;;;4937297;29;20071;-86
2021/12/19 10:40:21;;;;;;;0.20;0.20;;;;;;;;;;4937323;29;20479;-87
2021/12/19 10:42:54;;;;;;;0.10;0.10;;;;;;;;;;4937113;29;20063;-87
2021/12/19 10:45:29;;;;;;;0.10;0.10;;;;;;;;;;4921923;29;20078;-87
2021/12/19 10:48:10;;;;;;;0.10;0.10;;;;;;;;;;4938396;29;20050;-88
2021/12/19 10:50:43;;;;;;;0.17;0.17;;;;;;;;;;4937135;29;20126;-88
2021/12/19 10:53:09;;;;;;;0.10;0.10;;;;;;;;;;4937245;29;20471;-88
2021/12/19 10:55:36;;;;;;;0.10;0.10;;;;;;;;;;4937284;28;20079;-87
2021/12/19 10:58:02;;;;;;;0.10;0.10;;;;;;;;;;4937082;29;20085;-86
2021/12/19 11:00:28;;;;;;;0.10;0.10;;;;;;;;;;4937057;29;20098;-87
2021/12/19 11:02:55;;;;;;;0.10;0.10;;;;;;;;;;4937176;29;20039;-88
2021/12/19 11:05:36;;;;;;;0.10;0.10;;;;;;;;;;4921197;29;20044;-87
2021/12/19 11:08:04;;;;;;;0.10;0.10;;;;;;;;;;4921897;29;20039;-88
2021/12/19 11:10:30;;;;;;;0.10;0.10;;;;;;;;;;4922174;29;20059;-89
2021/12/19 11:13:09;;;;;;;0.10;0.10;;;;;;;;;;4923879;29;20074;-90
2021/12/19 11:15:35;;;;;;;0.10;0.10;;;;;;;;;;4937368;29;20107;-87
2021/12/19 11:18:01;;;;;;;0.10;0.10;;;;;;;;;;4936754;29;20452;-88
2021/12/19 11:20:27;;;;;;;0.10;0.10;;;;;;;;;;4937011;29;20081;-89
2021/12/19 11:22:54;;;;;;;0.10;0.10;;;;;;;;;;4937028;29;20450;-89
2021/12/19 11:25:20;;;;;;;0.10;0.10;;;;;;;;;;4921507;29;20043;-88
2021/12/19 11:27:46;;;;;;;0.10;0.10;;;;;;;;;;4936893;29;20097;-89
2021/12/19 11:30:14;;;;;;;0.10;0.10;;;;;;;;;;4936699;29;20047;-88
2021/12/19 11:32:59;;;;;;;0.10;0.10;;;;;;;;;;4936772;29;20054;-89
2021/12/19 11:35:25;;;;;;;0.10;0.10;;;;;;;;;;4952930;29;20115;-88
2021/12/19 11:37:52;;;;;;;0.10;0.10;;;;;;;;;;4936525;29;20055;-87
2021/12/19 11:40:19;;;;;;;0.10;0.10;;;;;;;;;;4936584;29;20039;-87
2021/12/19 11:42:45;;;;;;;0.10;0.10;;;;;;;;;;4936506;29;20047;-89
2021/12/19 11:47:57;;;;;;;;;;;;;;;;;;4938293;29;20043;-89
2021/12/19 11:50:29;;;;;;;0.10;0.10;;;;;;;;;;4952708;29;20061;-90
2021/12/19 11:52:56;;;;;;;;;;;;;;;;;;4937255;29;20054;-88
2021/12/19 11:55:26;;;;;;;0.20;0.20;;;;;;;;;;4952370;29;19919;-89
2021/12/19 11:58:07;;;;;;;0.10;0.10;;;;;;;;;;4936333;29;20047;-89
2021/12/19 12:00:33;;;;;;;0.20;0.20;;;;;;;;;;4936563;29;20423;-88
2021/12/19 12:03:12;;;;;;;0.10;0.10;;;;;;;;;;4952634;28;20170;-89
2021/12/19 12:05:38;;;;;;;0.10;0.10;;;;;;;;;;4952346;29;20039;-88
2021/12/19 12:08:08;;;;;;;0.10;0.10;;;;;;;;;;4922206;29;20129;-88
2021/12/19 12:10:53;;;;;;;0.10;0.10;;;;;;;;;;4939996;29;20039;-90
2021/12/19 12:13:32;;;;;;;0.30;0.30;;;;;;;;;;4940180;29;20105;-88
2021/12/19 12:16:09;;;;;;;0.10;0.10;;;;;;;;;;4956030;29;20424;-89
2021/12/19 12:18:36;;;;;;;0.10;0.10;;;;;;;;;;4925504;29;20046;-89
2021/12/19 12:21:22;;;;;;;0.10;0.10;;;;;;;;;;4940098;29;20049;-90
2021/12/19 12:24:00;;;;;;;0.10;0.10;;;;;;;;;;4956108;29;20054;-90
2021/12/19 12:26:37;;;;;;;0.10;0.10;;;;;;;;;;4924308;29;20046;-89
2021/12/19 12:29:05;;;;;;;0.10;0.10;;;;;;;;;;4955739;29;20077;-88
2021/12/19 12:31:31;;;;;;;0.10;0.10;;;;;;;;;;4924190;28;20082;-87
2021/12/19 12:33:57;;;;;;;0.10;0.10;;;;;;;;;;4940071;29;20058;-88
2021/12/19 12:36:23;;;;;;;0.10;0.10;;;;;;;;;;4939884;29;20521;-92
2021/12/19 12:38:51;;;;;;;0.10;0.10;;;;;;;;;;4940810;29;20093;-93
2021/12/19 12:41:40;;;;;;;0.10;0.10;;;;;;;;;;4925041;29;20066;-92
2021/12/19 12:44:10;;;;;;;0.35;0.20;;;;;;;;;;4926718;29;20087;-92
2021/12/19 12:46:36;;;;;;;0.10;0.10;;;;;;;;;;4924901;29;20050;-92
2021/12/19 12:49:03;;;;;;;0.10;0.10;;;;;;;;;;4924857;29;20631;-92
2021/12/19 12:51:29;;;;;;;0.10;0.10;;;;;;;;;;4924807;28;20072;-91
2021/12/19 12:53:56;;;;;;;0.20;0.20;;;;;;;;;;4955948;29;20090;-91
2021/12/19 12:56:34;;;;;;;0.10;0.10;;;;;;;;;;4924473;29;20475;-92
2021/12/19 12:59:00;;;;;;;0.10;0.10;;;;;;;;;;4940017;29;20055;-92
2021/12/19 13:01:27;;;;;;;1.67;0.50;;;;;;;;;;4955626;28;20095;-92
2021/12/19 13:03:57;;;;;;;0.10;0.10;;;;;;;;;;4924576;29;20045;-92
2021/12/19 13:06:36;;;;;;;0.10;0.10;;;;;;;;;;4941091;29;20043;-93
2021/12/19 13:09:14;;;;;;;0.10;0.10;;;;;;;;;;4947698;29;20102;-92
2021/12/19 13:11:41;;;;;;;0.10;0.10;;;;;;;;;;4973592;28;20055;-93
2021/12/19 13:14:21;;;;;;;0.95;0.95;;;;;;;;;;4944617;29;20044;-93
2021/12/19 13:16:48;;;;;;;0.10;0.10;;;;;;;;;;4960060;28;20052;-90
2021/12/19 13:19:53;;;;;;;0.10;0.10;;;;;;;;;;4946340;29;20098;-93
2021/12/19 13:22:22;;;;;;;0.10;0.10;;;;;;;;;;4882621;29;20484;-93
2021/12/19 13:24:48;;;;;;;0.10;0.10;;;;;;;;;;4882233;29;20105;-94
2021/12/19 13:27:19;;;;;;;0.10;0.10;;;;;;;;;;4886175;29;20055;-95
2021/12/19 13:30:27;;;;;;;0.10;0.10;;;;;;;;;;4924329;29;20130;-94
2021/12/19 13:32:54;;;;;;;0.10;0.10;;;;;;;;;;4883655;29;20045;-91
2021/12/19 13:35:22;;;;;;;0.10;0.10;;;;;;;;;;4851139;29;20164;-96
2021/12/19 13:37:52;;;;;;;0.10;0.10;;;;;;;;;;4902049;29;20101;-90
2021/12/19 13:40:18;;;;;;;0.25;0.25;;;;;;;;;;4937488;29;20044;-91
2021/12/19 13:42:46;;;;;;;0.10;0.10;;;;;;;;;;4923286;29;20446;-91
2021/12/19 13:45:21;;;;;;;0.10;0.10;;;;;;;;;;4923106;29;20039;-91
2021/12/19 13:47:47;;;;;;;0.20;0.20;;;;;;;;;;4939101;29;20043;-91
2021/12/19 13:50:14;;;;;;;0.10;0.10;;;;;;;;;;4923561;29;20130;-91
2021/12/19 13:52:40;;;;;;;0.10;0.10;;;;;;;;;;4939019;29;20518;-91
2021/12/19 13:55:09;;;;;;;0.10;0.10;;;;;;;;;;4954951;29;20253;-91
2021/12/19 13:57:35;;;;;;;0.10;0.10;;;;;;;;;;4939192;29;20396;-90
2021/12/19 14:00:03;;;;;;;0.10;0.10;;;;;;;;;;4922626;29;20238;-90
2021/12/19 14:02:35;;;;;;;0.10;0.10;;;;;;;;;;4954411;29;20050;-90
2021/12/19 14:05:01;;;;;;;0.10;0.10;;;;;;;;;;4938191;29;20047;-89
2021/12/19 14:07:29;;;;;;;0.10;0.10;;;;;;;;;;4954391;29;20043;-90
2021/12/19 14:10:02;;;;;;;0.10;0.10;;;;;;;;;;4954257;29;20451;-91
2021/12/19 14:12:52;;;;;;;0.20;0.20;;;;;;;;;;4923393;29;20122;-90
2021/12/19 14:15:18;;;;;;;0.10;0.10;;;;;;;;;;4941323;29;20087;-92
2021/12/19 14:17:44;;;;;;;0.10;0.10;;;;;;;;;;4938941;29;20075;-90
2021/12/19 14:20:10;;;;;;;0.10;0.10;;;;;;;;;;4938424;29;20050;-92
2021/12/19 14:22:36;;;;;;;0.10;0.10;;;;;;;;;;4954351;29;20043;-92
2021/12/19 14:25:02;;;;;;;0.10;0.10;;;;;;;;;;4954539;29;20042;-92
2021/12/19 14:27:35;;;;;;;0.10;0.10;;;;;;;;;;4922097;29;20047;-92
2021/12/19 14:30:04;;;;;;;0.10;0.10;;;;;;;;;;4938560;28;20082;-90
2021/12/19 14:32:32;;;;;;;0.10;0.10;;;;;;;;;;4937625;29;20129;-93
2021/12/19 14:35:03;;;;;;;0.10;0.10;;;;;;;;;;4922807;29;20082;-94
2021/12/19 14:37:31;;;;;;;0.10;0.10;;;;;;;;;;4921971;29;20062;-92
2021/12/19 14:40:04;;;;;;;0.10;0.10;;;;;;;;;;4937347;29;20043;-92
2021/12/19 14:42:31;;;;;;;0.17;0.17;;;;;;;;;;4922195;29;20130;-93
2021/12/19 14:44:57;;;;;;;0.10;0.10;;;;;;;;;;4921999;29;20050;-91
2021/12/19 14:47:36;;;;;;;0.25;0.25;;;;;;;;;;4937844;29;20090;-92
2021/12/19 14:50:12;;;;;;;0.10;0.10;;;;;;;;;;4921417;29;20094;-90
2021/12/19 14:52:38;;;;;;;0.10;0.10;;;;;;;;;;4921007;29;20233;-90
2021/12/19 14:55:14;;;;;;;0.10;0.10;;;;;;;;;;4921427;29;20106;-91
2021/12/19 14:57:41;;;;;;;0.17;0.17;;;;;;;;;;4921550;29;20047;-90
2021/12/19 15:00:07;;;;;;;0.10;0.10;;;;;;;;;;4937158;29;20047;-90
2021/12/19 15:02:33;;;;;;;0.10;0.10;;;;;;;;;;4936019;28;20457;-92
2021/12/19 15:04:59;;;;;;;0.10;0.10;;;;;;;;;;4936867;29;20070;-90
2021/12/19 15:07:26;;;;;;;0.10;0.10;;;;;;;;;;4921227;29;20480;-90
2021/12/19 15:09:52;;;;;;;0.10;0.10;;;;;;;;;;4921746;29;20046;-90
2021/12/19 15:12:18;;;;;;;0.10;0.10;;;;;;;;;;4937452;29;20042;-91
2021/12/19 15:14:44;;;;;;;0.10;0.10;;;;;;;;;;4921523;29;20035;-90
2021/12/19 15:17:10;;;;;;;0.10;0.10;;;;;;;;;;4921476;29;20047;-90
2021/12/19 15:19:36;;;;;;;0.10;0.10;;;;;;;;;;4936940;29;20047;-90
2021/12/19 15:22:02;;;;;;;0.10;0.10;;;;;;;;;;4952997;29;20110;-89
2021/12/19 15:24:28;;;;;;;0.10;0.10;;;;;;;;;;4936820;29;20106;-90
2021/12/19 15:26:54;;;;;;;0.10;0.10;;;;;;;;;;4937103;29;20408;-89
2021/12/19 15:29:20;;;;;;;0.10;0.10;;;;;;;;;;4936879;29;20051;-91
2021/12/19 15:31:46;;;;;;;0.10;0.10;;;;;;;;;;4920800;29;20043;-90
2021/12/19 15:34:12;;;;;;;0.10;0.10;;;;;;;;;;4920802;29;20043;-90
2021/12/19 15:36:39;;;;;;;0.10;0.10;;;;;;;;;;4936625;29;20070;-90
2021/12/19 15:39:06;;;;;;;0.10;0.10;;;;;;;;;;4921090;29;20090;-89
2021/12/19 15:41:33;;;;;;;0.10;0.10;;;;;;;;;;4936805;29;20364;-90
2021/12/19 15:43:59;;;;;;;0.10;0.10;;;;;;;;;;4942541;29;20137;-89
2021/12/19 15:46:25;;;;;;;0.10;0.10;;;;;;;;;;4944282;29;20506;-90